Time;durP1;ratioP1;P1;durP2;ratioP2;P2;SDS_P1;SDS_P2;PMS_P1;PMS_P2;Temp;Humidity;BMP_temperature;BMP_pressure;BME280_temperature;BME280_humidity;BME280_pressure;Samples;Min_cycle;Max_cycle;Signal;HPM_P1;HPM_P2
2023/09/22 00:04:58;;;;;;;10.30;9.87;;;17.40;99.90;;;;;;10344683;28;20226;-82
2023/09/22 00:10:01;;;;;;;10.10;9.70;;;17.20;99.90;;;;;;10348961;28;20223;-82
2023/09/22 00:15:04;;;;;;;10.37;9.97;;;17.10;99.90;;;;;;10355530;28;20249;-83
2023/09/22 00:20:11;;;;;;;10.40;10.00;;;17.00;99.90;;;;;;10351191;28;20202;-83
2023/09/22 00:25:16;;;;;;;10.40;10.00;;;17.00;99.90;;;;;;10351312;28;20613;-81
2023/09/22 00:30:18;;;;;;;10.50;10.00;;;16.90;99.90;;;;;;10359613;28;20227;-82
2023/09/22 00:35:20;;;;;;;10.20;9.60;;;16.90;99.90;;;;;;10336187;28;20219;-83
2023/09/22 00:40:23;;;;;;;10.20;9.60;;;16.80;99.90;;;;;;10352877;28;20270;-82
2023/09/22 00:45:25;;;;;;;9.67;9.23;;;16.80;99.90;;;;;;10356694;28;20239;-81
2023/09/22 00:50:28;;;;;;;9.70;9.30;;;16.70;99.90;;;;;;10342908;28;20222;-82
2023/09/22 00:55:31;;;;;;;9.80;9.40;;;16.70;99.90;;;;;;10360627;28;20233;-82
2023/09/22 01:00:33;;;;;;;9.80;9.40;;;16.70;99.90;;;;;;10332481;28;20705;-83
2023/09/22 01:05:36;;;;;;;9.93;9.53;;;16.60;99.90;;;;;;10313677;28;20637;-83
2023/09/22 01:10:42;;;;;;;9.80;9.40;;;16.60;99.90;;;;;;10360677;28;20699;-83
2023/09/22 01:15:45;;;;;;;10.17;9.67;;;16.60;99.90;;;;;;10341885;28;20227;-83
2023/09/22 01:20:47;;;;;;;9.93;9.53;;;16.60;99.90;;;;;;10341983;28;20739;-83
2023/09/22 01:25:50;;;;;;;10.40;10.00;;;16.60;99.90;;;;;;10338750;28;20228;-83
2023/09/22 01:30:52;;;;;;;9.80;9.40;;;16.60;99.90;;;;;;10345766;28;20227;-82
2023/09/22 01:35:54;;;;;;;9.80;9.40;;;16.60;99.90;;;;;;10370463;28;20227;-82
2023/09/22 01:40:58;;;;;;;9.60;9.30;;;16.70;99.90;;;;;;10353390;28;20580;-82
2023/09/22 01:46:00;;;;;;;9.30;8.93;;;16.70;99.90;;;;;;10352108;28;20247;-82
2023/09/22 01:51:03;;;;;;;9.80;9.40;;;16.70;99.90;;;;;;10341750;28;20615;-82
2023/09/22 01:56:07;;;;;;;9.43;8.93;;;16.80;99.90;;;;;;10359015;28;20227;-82
2023/09/22 02:01:11;;;;;;;10.40;9.90;;;16.80;99.90;;;;;;10355724;28;20207;-83
2023/09/22 02:06:13;;;;;;;9.40;9.00;;;16.80;99.90;;;;;;10366491;28;20259;-82
2023/09/22 02:11:16;;;;;;;9.77;9.37;;;16.80;99.90;;;;;;10345727;28;20239;-82
2023/09/22 02:16:20;;;;;;;9.83;9.43;;;16.70;99.90;;;;;;10356019;28;20229;-82
2023/09/22 02:21:22;;;;;;;8.73;8.27;;;16.70;99.90;;;;;;10370162;28;20247;-82
2023/09/22 02:26:26;;;;;;;9.53;9.13;;;16.70;99.90;;;;;;10349567;28;20219;-82
2023/09/22 02:31:28;;;;;;;9.00;8.60;;;16.80;99.90;;;;;;10354365;28;20642;-81
2023/09/22 02:36:30;;;;;;;9.07;8.67;;;16.90;99.90;;;;;;10343214;28;20595;-82
2023/09/22 02:41:33;;;;;;;8.73;8.13;;;16.90;99.90;;;;;;10350767;28;20303;-82
2023/09/22 02:46:35;;;;;;;8.70;8.40;;;16.90;99.90;;;;;;10357224;28;20653;-82
2023/09/22 02:51:37;;;;;;;8.70;8.40;;;16.90;99.90;;;;;;10337467;28;20212;-82
2023/09/22 02:56:41;;;;;;;9.03;8.63;;;16.80;99.90;;;;;;10350895;28;20239;-81
2023/09/22 03:01:43;;;;;;;8.23;7.93;;;16.90;99.90;;;;;;10352056;28;20387;-81
2023/09/22 03:06:45;;;;;;;7.70;7.40;;;16.90;99.90;;;;;;10366361;22;20259;-80
2023/09/22 03:11:49;;;;;;;6.40;6.10;;;16.90;99.90;;;;;;10413731;28;20214;-81
2023/09/22 03:16:53;;;;;;;8.40;8.10;;;16.90;99.90;;;;;;10338348;28;20299;-81
2023/09/22 03:21:56;;;;;;;6.63;6.37;;;16.90;99.90;;;;;;10355877;28;20212;-81
2023/09/22 03:27:00;;;;;;;9.17;8.77;;;16.90;99.90;;;;;;10320669;28;20220;-81
2023/09/22 03:32:02;;;;;;;7.47;7.17;;;16.90;99.90;;;;;;10322362;28;20192;-81
2023/09/22 03:37:08;;;;;;;7.63;7.33;;;16.90;99.90;;;;;;10325187;28;20225;-81
2023/09/22 03:42:13;;;;;;;7.63;7.03;;;16.90;99.90;;;;;;10356260;28;20228;-81
2023/09/22 03:47:16;;;;;;;7.07;6.83;;;17.00;99.90;;;;;;10323975;28;20299;-81
2023/09/22 03:52:18;;;;;;;7.97;7.57;;;17.00;99.90;;;;;;10327602;28;20226;-81
2023/09/22 03:57:22;;;;;;;6.50;6.20;;;17.00;99.90;;;;;;10340658;28;20211;-81
2023/09/22 04:02:27;;;;;;;6.90;6.60;;;17.00;99.90;;;;;;10360983;28;20204;-81
2023/09/22 04:07:32;;;;;;;6.90;6.40;;;17.00;99.90;;;;;;10328103;28;20612;-80
2023/09/22 04:12:36;;;;;;;7.00;6.30;;;17.00;99.90;;;;;;10325563;28;20211;-81
2023/09/22 04:17:39;;;;;;;6.80;6.50;;;17.00;99.90;;;;;;10312365;28;20224;-81
2023/09/22 04:22:43;;;;;;;5.50;5.30;;;17.00;99.90;;;;;;10380519;28;20208;-81
2023/09/22 04:27:53;;;;;;;5.53;5.33;;;17.10;99.90;;;;;;10334330;28;20259;-81
2023/09/22 04:32:56;;;;;;;6.30;6.00;;;17.10;99.90;;;;;;10357322;28;20211;-80
2023/09/22 04:37:58;;;;;;;6.90;6.57;;;17.10;99.90;;;;;;10370831;28;20219;-79
2023/09/22 04:43:02;;;;;;;5.80;5.40;;;17.10;99.90;;;;;;10337557;28;20207;-81
2023/09/22 04:48:05;;;;;;;4.87;4.67;;;17.10;99.90;;;;;;10332773;28;20227;-81
2023/09/22 04:53:08;;;;;;;4.73;4.53;;;17.10;99.90;;;;;;10321238;28;20211;-81
2023/09/22 04:58:14;;;;;;;4.73;4.43;;;17.10;99.90;;;;;;10369619;28;20287;-81
2023/09/22 05:03:16;;;;;;;4.33;4.13;;;17.10;99.90;;;;;;10333863;28;20879;-80
2023/09/22 05:08:18;;;;;;;2.47;2.37;;;17.10;99.90;;;;;;10332981;28;20282;-81
2023/09/22 05:13:22;;;;;;;4.73;4.53;;;17.00;99.90;;;;;;10327045;28;20292;-81
2023/09/22 05:18:24;;;;;;;5.87;4.80;;;17.10;99.90;;;;;;10310439;28;20216;-80
2023/09/22 05:23:26;;;;;;;7.10;6.37;;;17.10;99.90;;;;;;10339880;28;20259;-75
2023/09/22 05:28:30;;;;;;;5.10;4.87;;;17.10;99.90;;;;;;10339910;28;20232;-82
2023/09/22 05:33:34;;;;;;;4.93;4.63;;;17.10;99.90;;;;;;10340684;28;20212;-81
2023/09/22 05:38:37;;;;;;;3.53;3.33;;;17.20;99.90;;;;;;10350894;28;20282;-80
2023/09/22 05:43:41;;;;;;;3.67;3.43;;;17.20;99.90;;;;;;10365074;28;20200;-79
2023/09/22 05:48:43;;;;;;;2.47;2.30;;;17.20;99.90;;;;;;10343244;28;20227;-81
2023/09/22 05:53:45;;;;;;;2.27;2.13;;;17.30;99.90;;;;;;10344676;28;20208;-80
2023/09/22 05:58:48;;;;;;;3.70;3.50;;;17.20;99.90;;;;;;10352795;28;20219;-80
2023/09/22 06:03:51;;;;;;;2.23;2.03;;;17.20;99.90;;;;;;10339613;28;20212;-81
2023/09/22 06:08:53;;;;;;;6.63;3.50;;;17.20;99.90;;;;;;10359476;28;20611;-80
2023/09/22 06:13:56;;;;;;;3.57;3.37;;;17.20;99.90;;;;;;10343883;28;20203;-80
2023/09/22 06:18:58;;;;;;;3.60;3.37;;;17.20;99.90;;;;;;10354525;28;20266;-80
2023/09/22 06:24:00;;;;;;;2.70;2.50;;;17.20;99.90;;;;;;10338633;28;20208;-80
2023/09/22 06:29:05;;;;;;;2.90;2.80;;;17.20;99.90;;;;;;10358663;28;20228;-80
2023/09/22 06:34:08;;;;;;;3.37;3.00;;;17.30;99.90;;;;;;10327241;28;20200;-81
2023/09/22 06:39:10;;;;;;;2.50;2.40;;;17.30;99.90;;;;;;10339749;28;20639;-81
2023/09/22 06:44:13;;;;;;;3.00;2.90;;;17.30;99.90;;;;;;10338251;28;20203;-81
2023/09/22 06:49:16;;;;;;;2.80;2.70;;;17.30;99.90;;;;;;10337958;28;20232;-81
2023/09/22 06:54:18;;;;;;;3.20;3.10;;;17.40;99.90;;;;;;10350048;28;20628;-81
2023/09/22 06:59:22;;;;;;;5.13;2.20;;;17.50;99.90;;;;;;10370833;28;20200;-81
2023/09/22 07:04:24;;;;;;;2.80;2.70;;;17.60;99.90;;;;;;10365375;28;20290;-80
2023/09/22 07:09:27;;;;;;;2.97;2.83;;;17.70;99.90;;;;;;10347110;28;20278;-81
2023/09/22 07:14:33;;;;;;;2.30;2.20;;;17.80;99.90;;;;;;10341321;28;20209;-81
2023/09/22 07:19:39;;;;;;;2.60;2.50;;;17.80;99.90;;;;;;10353891;28;20192;-80
2023/09/22 07:24:42;;;;;;;2.83;2.73;;;17.90;99.90;;;;;;10371225;28;20231;-81
2023/09/22 07:29:50;;;;;;;2.53;2.43;;;17.90;99.90;;;;;;10351336;28;20227;-81
2023/09/22 07:34:52;;;;;;;2.20;2.10;;;17.90;99.90;;;;;;10341020;28;20236;-81
2023/09/22 07:39:55;;;;;;;3.67;2.67;;;17.90;99.90;;;;;;10365246;28;20262;-81
2023/09/22 07:44:59;;;;;;;2.30;2.20;;;18.00;99.90;;;;;;10331501;28;20607;-81
2023/09/22 07:50:01;;;;;;;2.20;2.10;;;18.00;99.90;;;;;;10343618;28;20219;-81
2023/09/22 07:55:05;;;;;;;2.60;2.40;;;18.00;99.90;;;;;;10372760;28;20223;-81
2023/09/22 08:00:10;;;;;;;2.40;2.30;;;18.00;99.90;;;;;;10341448;28;20554;-81
2023/09/22 08:05:16;;;;;;;2.17;2.07;;;18.00;99.90;;;;;;10374403;28;20269;-81
2023/09/22 08:10:22;;;;;;;2.30;2.20;;;18.00;99.90;;;;;;10341131;28;20228;-81
2023/09/22 08:15:26;;;;;;;2.30;2.07;;;18.00;99.90;;;;;;10356392;28;20243;-81
2023/09/22 08:20:28;;;;;;;2.43;2.23;;;18.00;99.90;;;;;;10364092;28;20231;-81
2023/09/22 08:25:30;;;;;;;3.37;2.40;;;18.10;99.90;;;;;;10365528;28;20238;-81
2023/09/22 08:30:34;;;;;;;2.13;2.03;;;18.20;99.90;;;;;;10339654;28;20227;-81
2023/09/22 08:35:37;;;;;;;2.33;2.10;;;18.40;99.90;;;;;;10336101;28;20237;-81
2023/09/22 08:40:40;;;;;;;2.80;2.20;;;18.50;99.90;;;;;;10340772;28;20286;-81
2023/09/22 08:45:43;;;;;;;2.07;1.87;;;18.70;99.90;;;;;;10354842;28;20288;-81
2023/09/22 08:50:46;;;;;;;1.83;1.73;;;18.90;99.90;;;;;;10370786;28;20703;-81
2023/09/22 08:55:50;;;;;;;3.43;1.50;;;18.90;99.90;;;;;;10378419;28;20241;-81
2023/09/22 09:00:54;;;;;;;1.70;1.60;;;19.00;99.90;;;;;;10351083;28;20228;-81
2023/09/22 09:06:07;;;;;;;1.70;1.60;;;19.20;99.90;;;;;;10393817;22;20239;-80
2023/09/22 09:11:11;;;;;;;1.90;1.70;;;19.30;99.90;;;;;;10416258;28;20301;-80
2023/09/22 09:16:29;;;;;;;1.90;1.80;;;19.30;99.90;;;;;;10382369;28;20231;-81
2023/09/22 09:21:31;;;;;;;1.77;1.67;;;19.40;99.90;;;;;;10402303;28;20494;-81
2023/09/22 09:26:33;;;;;;;1.63;1.53;;;19.30;99.90;;;;;;10410958;28;20441;-81
2023/09/22 09:31:47;;;;;;;2.83;1.43;;;19.20;99.90;;;;;;10418032;28;20282;-81
2023/09/22 09:37:09;;;;;;;1.90;1.80;;;19.20;99.90;;;;;;10412034;28;20222;-81
2023/09/22 09:42:14;;;;;;;1.57;1.40;;;19.20;99.90;;;;;;10394411;28;20203;-81
2023/09/22 09:47:24;;;;;;;3.00;2.07;;;19.20;99.90;;;;;;10368156;28;20227;-81
2023/09/22 09:52:31;;;;;;;1.70;1.60;;;19.20;99.90;;;;;;10421827;28;20287;-81
2023/09/22 09:57:35;;;;;;;1.87;1.73;;;19.40;99.90;;;;;;10397409;28;20222;-81
2023/09/22 10:02:40;;;;;;;2.63;1.60;;;19.60;99.90;;;;;;10402216;28;20198;-82
2023/09/22 10:07:43;;;;;;;3.77;2.17;;;19.60;99.90;;;;;;10400437;28;20249;-82
2023/09/22 10:12:46;;;;;;;1.50;1.40;;;19.50;99.90;;;;;;10416428;28;20231;-82
2023/09/22 10:17:55;;;;;;;1.63;1.53;;;19.60;99.90;;;;;;10388187;28;20231;-82
2023/09/22 10:23:16;;;;;;;2.03;1.30;;;19.70;99.90;;;;;;10375923;28;20265;-82
2023/09/22 10:28:28;;;;;;;1.80;1.70;;;19.80;99.90;;;;;;10409334;28;20238;-82
2023/09/22 10:33:32;;;;;;;1.60;1.50;;;19.80;99.90;;;;;;10392367;28;20261;-82
2023/09/22 10:38:54;;;;;;;2.20;1.90;;;19.90;99.90;;;;;;10406707;28;20576;-81
2023/09/22 10:43:58;;;;;;;1.50;1.40;;;19.90;99.90;;;;;;10406275;28;20214;-82
2023/09/22 10:49:02;;;;;;;1.57;1.50;;;19.80;99.90;;;;;;10369834;28;20326;-81
2023/09/22 10:54:04;;;;;;;1.30;1.23;;;19.60;99.90;;;;;;10395432;28;20210;-81
2023/09/22 10:59:07;;;;;;;1.60;1.50;;;19.60;99.90;;;;;;10402709;28;20615;-81
2023/09/22 11:04:10;;;;;;;1.70;1.43;;;19.60;99.90;;;;;;10395392;28;20208;-82
2023/09/22 11:09:14;;;;;;;1.40;1.40;;;19.70;99.90;;;;;;10413689;28;20649;-81
2023/09/22 11:14:21;;;;;;;1.50;1.40;;;19.90;99.90;;;;;;10406588;28;20207;-81
2023/09/22 11:19:24;;;;;;;1.27;1.17;;;20.00;99.90;;;;;;10408864;28;20680;-81
2023/09/22 11:24:27;;;;;;;1.30;1.20;;;20.10;99.90;;;;;;10395863;28;20203;-82
2023/09/22 11:29:29;;;;;;;2.30;1.40;;;20.40;99.90;;;;;;10415357;28;20223;-82
2023/09/22 11:34:33;;;;;;;1.40;1.30;;;20.70;99.90;;;;;;10407453;28;20274;-82
2023/09/22 11:39:35;;;;;;;1.27;1.20;;;20.80;99.80;;;;;;10388717;28;20219;-82
2023/09/22 11:44:37;;;;;;;1.30;1.23;;;20.80;99.90;;;;;;10414918;28;20210;-81
2023/09/22 11:49:41;;;;;;;1.03;0.80;;;20.80;99.90;;;;;;10404801;28;20775;-81
2023/09/22 11:54:43;;;;;;;2.90;1.60;;;20.80;99.40;;;;;;10402832;28;20270;-81
2023/09/22 11:59:47;;;;;;;1.53;1.43;;;20.70;99.70;;;;;;10396053;28;20210;-81
2023/09/22 12:04:52;;;;;;;1.97;1.10;;;20.70;99.30;;;;;;10394945;28;20218;-82
2023/09/22 12:09:55;;;;;;;1.50;1.40;;;20.60;97.60;;;;;;10396708;28;20284;-81
2023/09/22 12:14:57;;;;;;;1.50;1.37;;;20.40;98.30;;;;;;10411832;28;20269;-81
2023/09/22 12:20:00;;;;;;;1.40;1.00;;;20.30;98.70;;;;;;10410656;28;20206;-81
2023/09/22 12:25:02;;;;;;;1.37;1.20;;;20.30;99.70;;;;;;10387537;28;20218;-81
2023/09/22 12:30:06;;;;;;;1.60;1.50;;;20.40;99.50;;;;;;10406276;28;20222;-81
2023/09/22 12:35:10;;;;;;;1.63;1.30;;;20.60;97.90;;;;;;10404985;28;20233;-82
2023/09/22 12:40:12;;;;;;;1.47;1.37;;;20.70;97.50;;;;;;10398940;28;20195;-81
2023/09/22 12:45:16;;;;;;;1.43;1.17;;;20.70;97.50;;;;;;10401792;28;20255;-81
2023/09/22 12:50:20;;;;;;;1.57;1.47;;;20.80;98.40;;;;;;10370876;28;20575;-81
2023/09/22 12:55:22;;;;;;;2.40;1.40;;;20.80;97.50;;;;;;10416347;28;20223;-81
2023/09/22 13:00:24;;;;;;;1.50;1.40;;;20.60;96.90;;;;;;10408272;28;20202;-81
2023/09/22 13:05:27;;;;;;;1.20;1.10;;;20.40;97.60;;;;;;10373369;28;20235;-81
2023/09/22 13:10:30;;;;;;;2.10;1.17;;;20.40;97.50;;;;;;10400357;28;20223;-81
2023/09/22 13:15:33;;;;;;;1.80;1.50;;;20.30;97.10;;;;;;10399740;28;20310;-81
2023/09/22 13:20:37;;;;;;;1.20;1.10;;;20.20;97.50;;;;;;10393896;28;20259;-81
2023/09/22 13:25:40;;;;;;;1.50;1.40;;;20.20;97.00;;;;;;10403725;28;20234;-82
2023/09/22 13:30:43;;;;;;;2.63;1.63;;;20.30;97.20;;;;;;10402243;28;20251;-81
2023/09/22 13:35:48;;;;;;;2.17;1.30;;;20.50;98.00;;;;;;10412982;28;20257;-81
2023/09/22 13:40:51;;;;;;;1.77;1.60;;;20.60;96.90;;;;;;10380943;28;20238;-81
2023/09/22 13:45:54;;;;;;;2.03;1.40;;;20.70;96.60;;;;;;10407539;28;20239;-81
2023/09/22 13:50:57;;;;;;;2.13;1.20;;;20.70;96.60;;;;;;10406138;28;20210;-82
2023/09/22 13:55:59;;;;;;;1.37;1.23;;;20.70;95.90;;;;;;10403695;28;20584;-81
2023/09/22 14:01:11;;;;;;;1.50;1.40;;;20.60;95.50;;;;;;10414691;28;20202;-82
2023/09/22 14:06:15;;;;;;;1.30;1.20;;;20.60;96.90;;;;;;10416249;28;20248;-81
2023/09/22 14:11:17;;;;;;;1.73;1.43;;;20.70;96.40;;;;;;10422829;28;20586;-81
2023/09/22 14:16:19;;;;;;;3.93;2.07;;;20.70;95.20;;;;;;10397422;28;20231;-81
2023/09/22 14:21:23;;;;;;;1.60;1.50;;;20.70;95.00;;;;;;10396250;28;20766;-81
2023/09/22 14:26:25;;;;;;;1.40;1.30;;;20.60;95.20;;;;;;10398645;28;20218;-81
2023/09/22 14:31:28;;;;;;;1.90;1.50;;;20.50;95.90;;;;;;10401668;28;20262;-81
2023/09/22 14:36:32;;;;;;;2.13;1.00;;;20.40;96.30;;;;;;10407313;28;20264;-81
2023/09/22 14:41:34;;;;;;;2.70;1.40;;;20.40;95.10;;;;;;10392068;28;20285;-81
2023/09/22 14:46:36;;;;;;;1.57;1.47;;;20.30;95.40;;;;;;10379436;28;20229;-81
2023/09/22 14:51:40;;;;;;;2.73;1.60;;;20.20;95.30;;;;;;10383325;28;20318;-82
2023/09/22 14:56:42;;;;;;;3.20;1.43;;;20.20;93.20;;;;;;10390267;28;20231;-81
2023/09/22 15:01:44;;;;;;;1.50;1.40;;;20.30;93.70;;;;;;10384346;28;20214;-81
2023/09/22 15:06:48;;;;;;;1.80;1.70;;;20.20;93.20;;;;;;10414109;28;20234;-81
2023/09/22 15:11:50;;;;;;;1.30;1.20;;;20.20;95.20;;;;;;10411682;28;20231;-80
2023/09/22 15:16:53;;;;;;;2.83;1.20;;;20.20;94.00;;;;;;10383947;28;20281;-80
2023/09/22 15:21:56;;;;;;;1.00;1.00;;;20.30;94.00;;;;;;10358148;28;20562;-80
2023/09/22 15:26:58;;;;;;;2.37;1.40;;;20.30;93.50;;;;;;10372314;28;20601;-81
2023/09/22 15:32:00;;;;;;;1.80;1.70;;;20.30;93.20;;;;;;10404253;28;20718;-80
2023/09/22 15:37:04;;;;;;;1.63;1.53;;;20.40;92.50;;;;;;10381321;28;20231;-80
2023/09/22 15:42:07;;;;;;;2.40;1.40;;;20.40;92.50;;;;;;10380401;28;20200;-80
2023/09/22 15:47:11;;;;;;;1.43;1.27;;;20.50;93.50;;;;;;10360601;28;20227;-80
2023/09/22 15:52:14;;;;;;;1.33;1.23;;;20.50;93.00;;;;;;10378814;28;20222;-81
2023/09/22 15:57:16;;;;;;;3.03;1.27;;;20.50;96.20;;;;;;10381389;28;20284;-80
2023/09/22 16:02:18;;;;;;;1.10;1.10;;;20.40;96.70;;;;;;10380678;28;20610;-80
2023/09/22 16:07:22;;;;;;;1.60;1.50;;;20.20;97.10;;;;;;10346623;28;20227;-81
2023/09/22 16:12:24;;;;;;;1.37;1.20;;;20.20;97.10;;;;;;10381073;28;20257;-81
2023/09/22 16:17:27;;;;;;;1.40;1.30;;;20.10;97.30;;;;;;10364054;28;20231;-80
2023/09/22 16:22:30;;;;;;;1.50;1.40;;;19.90;97.40;;;;;;10381002;28;20214;-80
2023/09/22 16:27:32;;;;;;;1.27;1.27;;;19.80;97.10;;;;;;10381171;28;20273;-80
2023/09/22 16:32:36;;;;;;;1.40;1.40;;;19.70;97.90;;;;;;10379584;28;20223;-80
2023/09/22 16:37:39;;;;;;;1.20;1.20;;;19.60;97.90;;;;;;10381465;28;20221;-80
2023/09/22 16:42:41;;;;;;;1.27;1.17;;;19.40;98.30;;;;;;10380251;28;20218;-80
2023/09/22 16:47:44;;;;;;;1.37;1.27;;;19.30;98.50;;;;;;10379942;28;20219;-80
2023/09/22 16:52:48;;;;;;;2.00;1.27;;;19.30;98.70;;;;;;10378805;28;20219;-80
2023/09/22 16:57:50;;;;;;;1.60;1.50;;;19.20;99.00;;;;;;10385583;28;20223;-80
2023/09/22 17:02:54;;;;;;;2.00;1.60;;;19.20;99.30;;;;;;10376754;28;20203;-79
2023/09/22 17:07:57;;;;;;;1.33;1.33;;;19.00;99.30;;;;;;10361517;28;20235;-80
2023/09/22 17:12:59;;;;;;;1.80;1.70;;;18.90;99.90;;;;;;10381764;28;20302;-80
2023/09/22 17:18:02;;;;;;;1.27;1.17;;;18.90;99.90;;;;;;10382005;28;20227;-79
2023/09/22 17:23:06;;;;;;;1.30;1.20;;;18.80;99.90;;;;;;10361739;28;20199;-80
2023/09/22 17:28:09;;;;;;;1.60;1.50;;;18.70;99.90;;;;;;10360065;28;20227;-79
2023/09/22 17:33:11;;;;;;;1.73;1.30;;;18.60;99.90;;;;;;10381662;28;20227;-79
2023/09/22 17:38:17;;;;;;;1.73;1.63;;;18.60;99.90;;;;;;10367098;28;20227;-80
2023/09/22 17:43:19;;;;;;;1.43;1.33;;;18.70;99.90;;;;;;10365575;28;20253;-79
2023/09/22 17:48:21;;;;;;;1.70;1.60;;;18.70;99.90;;;;;;10379782;28;20227;-79
2023/09/22 17:53:26;;;;;;;1.87;1.73;;;18.70;99.90;;;;;;10377003;28;20236;-79
2023/09/22 17:58:28;;;;;;;4.23;3.83;;;18.70;99.90;;;;;;10376910;28;20702;-80
2023/09/22 18:03:30;;;;;;;4.27;4.17;;;18.60;99.90;;;;;;10381092;28;20203;-80
2023/09/22 18:08:34;;;;;;;4.50;4.30;;;18.10;99.90;;;;;;10362580;28;20229;-80
2023/09/22 18:13:39;;;;;;;5.10;4.90;;;17.50;99.90;;;;;;10361555;28;20233;-81
2023/09/22 18:18:41;;;;;;;5.70;5.50;;;17.00;99.90;;;;;;10375229;28;20627;-82
2023/09/22 18:23:45;;;;;;;6.50;6.30;;;16.50;99.90;;;;;;10383247;28;20210;-81
2023/09/22 18:28:47;;;;;;;8.00;7.60;;;16.20;99.90;;;;;;10382764;28;20786;-81
2023/09/22 18:33:49;;;;;;;8.77;8.47;;;15.90;99.90;;;;;;10377455;28;20231;-81
2023/09/22 18:38:53;;;;;;;8.80;8.50;;;15.80;99.90;;;;;;10378721;28;20698;-81
2023/09/22 18:43:55;;;;;;;8.83;8.50;;;15.60;99.90;;;;;;10379927;28;20223;-81
2023/09/22 18:48:57;;;;;;;10.63;10.20;;;15.60;99.90;;;;;;10365160;28;20278;-81
2023/09/22 18:54:00;;;;;;;10.10;9.70;;;15.60;99.90;;;;;;10376831;28;20698;-80
2023/09/22 18:59:03;;;;;;;9.60;9.20;;;15.60;99.90;;;;;;10380346;28;20410;-80
2023/09/22 19:04:05;;;;;;;9.80;9.40;;;15.70;99.90;;;;;;10380857;28;20736;-81
2023/09/22 19:09:10;;;;;;;6.27;5.97;;;15.70;99.90;;;;;;10378091;28;20643;-80
2023/09/22 19:14:12;;;;;;;8.97;8.53;;;15.70;99.90;;;;;;10379444;28;20314;-81
2023/09/22 19:19:14;;;;;;;9.27;8.87;;;15.70;99.90;;;;;;10347295;28;20282;-81
2023/09/22 19:24:18;;;;;;;8.83;8.43;;;15.80;99.90;;;;;;10375550;28;20670;-80
2023/09/22 19:29:20;;;;;;;8.60;8.13;;;15.80;99.90;;;;;;10380897;28;20253;-80
2023/09/22 19:34:22;;;;;;;9.00;8.60;;;15.80;99.90;;;;;;10383720;28;20287;-81
2023/09/22 19:39:27;;;;;;;6.50;6.20;;;15.90;99.90;;;;;;10380148;28;20228;-80
2023/09/22 19:44:29;;;;;;;10.50;10.10;;;16.00;99.90;;;;;;10377160;28;20204;-80
2023/09/22 19:49:34;;;;;;;7.80;7.40;;;16.10;99.90;;;;;;10357083;28;20235;-80
2023/09/22 19:54:39;;;;;;;9.30;8.90;;;16.20;99.90;;;;;;10355184;28;20222;-80
2023/09/22 19:59:41;;;;;;;8.60;8.10;;;16.20;99.90;;;;;;10356973;28;20216;-80
2023/09/22 20:04:45;;;;;;;8.40;7.90;;;16.20;99.90;;;;;;10375415;28;20199;-80
2023/09/22 20:09:49;;;;;;;8.70;8.20;;;16.20;99.90;;;;;;10378280;28;20207;-80
2023/09/22 20:14:52;;;;;;;8.40;8.00;;;16.30;99.90;;;;;;10360279;28;20773;-81
2023/09/22 20:19:54;;;;;;;8.70;8.10;;;16.20;99.90;;;;;;10355403;28;20643;-81
2023/09/22 20:24:58;;;;;;;8.83;8.43;;;16.20;99.90;;;;;;10375949;28;20230;-80
2023/09/22 20:30:00;;;;;;;9.00;8.30;;;16.10;99.90;;;;;;10371081;28;20218;-80
2023/09/22 20:35:04;;;;;;;7.50;7.20;;;16.10;99.90;;;;;;10359761;28;20266;-80
2023/09/22 20:40:11;;;;;;;7.33;7.03;;;16.00;99.90;;;;;;10377499;28;20211;-80
2023/09/22 20:45:14;;;;;;;8.47;8.17;;;16.00;99.90;;;;;;10374529;28;20617;-80
2023/09/22 20:50:17;;;;;;;8.40;8.00;;;16.00;99.90;;;;;;10358660;28;20666;-81
2023/09/22 20:55:21;;;;;;;8.30;7.90;;;16.00;99.90;;;;;;10375349;28;20226;-81
2023/09/22 21:00:23;;;;;;;8.00;7.70;;;16.00;99.90;;;;;;10376793;28;20253;-81
2023/09/22 21:05:25;;;;;;;7.13;6.90;;;16.00;99.90;;;;;;10371912;22;20235;-77
2023/09/22 21:10:33;;;;;;;7.67;7.37;;;16.00;99.90;;;;;;10390745;28;20705;-77
2023/09/22 21:15:35;;;;;;;6.70;6.40;;;15.90;99.90;;;;;;10392068;28;20598;-77
2023/09/22 21:20:37;;;;;;;6.93;6.63;;;15.80;99.90;;;;;;10394609;28;20190;-77
2023/09/22 21:25:42;;;;;;;5.30;5.00;;;15.80;99.90;;;;;;10366831;28;20277;-77
2023/09/22 21:30:44;;;;;;;5.80;5.50;;;15.80;99.90;;;;;;10366524;28;20230;-77
2023/09/22 21:35:47;;;;;;;5.60;5.40;;;15.90;99.90;;;;;;10366783;28;20718;-76
2023/09/22 21:40:50;;;;;;;5.07;4.80;;;15.90;99.90;;;;;;10346660;28;20211;-77
2023/09/22 21:45:52;;;;;;;5.00;4.50;;;15.90;99.90;;;;;;10371412;28;20227;-77
2023/09/22 21:50:54;;;;;;;4.10;3.90;;;15.90;99.90;;;;;;10379099;28;20294;-76
2023/09/22 21:55:58;;;;;;;4.13;3.93;;;16.00;99.90;;;;;;10373909;28;20269;-77
2023/09/22 22:01:01;;;;;;;4.40;4.20;;;16.00;99.90;;;;;;10373018;28;20207;-77
2023/09/22 22:06:06;;;;;;;4.03;3.83;;;16.00;99.90;;;;;;10373225;28;20230;-77
2023/09/22 22:11:09;;;;;;;3.90;3.70;;;16.10;99.90;;;;;;10373132;28;20219;-76
2023/09/22 22:16:15;;;;;;;3.63;3.43;;;16.20;99.90;;;;;;10383912;28;20241;-77
2023/09/22 22:21:18;;;;;;;2.70;2.60;;;16.10;99.90;;;;;;10382739;28;20199;-77
2023/09/22 22:26:22;;;;;;;3.10;2.90;;;16.20;99.90;;;;;;10372561;28;20235;-77
2023/09/22 22:31:24;;;;;;;2.63;2.53;;;16.20;99.90;;;;;;10371819;28;20226;-77
2023/09/22 22:36:26;;;;;;;3.43;3.23;;;16.20;99.90;;;;;;10371925;28;20230;-77
2023/09/22 22:41:30;;;;;;;3.40;1.93;;;16.30;99.90;;;;;;10371678;28;20195;-77
2023/09/22 22:46:32;;;;;;;2.50;2.40;;;16.30;99.90;;;;;;10373619;28;20235;-77
2023/09/22 22:51:34;;;;;;;2.83;2.63;;;16.30;99.90;;;;;;10371272;28;20230;-76
2023/09/22 22:57:03;;;;;;;2.50;2.40;;;16.30;99.90;;;;;;10371503;28;20704;-78
2023/09/22 23:02:09;;;;;;;2.63;2.53;;;16.30;99.90;;;;;;10341849;28;20236;-78
2023/09/22 23:07:11;;;;;;;2.30;2.17;;;16.20;99.90;;;;;;10355217;28;20289;-77
2023/09/22 23:12:15;;;;;;;2.50;2.30;;;16.10;99.90;;;;;;10370064;28;20231;-77
2023/09/22 23:17:21;;;;;;;2.50;2.40;;;16.00;99.90;;;;;;10376348;28;20235;-77
2023/09/22 23:22:24;;;;;;;2.90;2.80;;;15.90;99.90;;;;;;10370328;28;20198;-77
2023/09/22 23:27:28;;;;;;;2.60;2.50;;;15.70;99.90;;;;;;10369670;28;20277;-76
2023/09/22 23:32:31;;;;;;;2.00;1.90;;;15.60;99.90;;;;;;10369673;28;20231;-76
2023/09/22 23:37:34;;;;;;;2.63;2.43;;;15.50;99.90;;;;;;10370241;28;20227;-76
2023/09/22 23:42:37;;;;;;;2.47;2.37;;;15.40;99.90;;;;;;10369690;28;20241;-76
2023/09/22 23:47:40;;;;;;;2.70;2.60;;;15.40;99.90;;;;;;10362683;28;20784;-76
2023/09/22 23:52:42;;;;;;;4.03;3.73;;;15.40;99.90;;;;;;10353030;28;20227;-76
2023/09/22 23:57:46;;;;;;;3.23;3.13;;;15.40;99.90;;;;;;10354115;28;20575;-75
